createdAt,value
2022-12-23T00:01:00.989Z,14.27
2022-12-23T00:03:28.152Z,13.27
2022-12-23T00:05:54.863Z,15.15
2022-12-23T00:08:21.889Z,14.02
2022-12-23T00:10:49.403Z,14.82
2022-12-23T00:13:16.400Z,13.23
2022-12-23T00:15:43.003Z,15.90
2022-12-23T00:18:09.668Z,16.38
2022-12-23T00:20:36.376Z,16.15
2022-12-23T00:23:03.082Z,14.43
2022-12-23T00:25:29.719Z,17.30
2022-12-23T00:27:56.383Z,14.73
2022-12-23T00:30:23.109Z,16.55
2022-12-23T00:32:49.810Z,16.05
2022-12-23T00:35:16.509Z,13.65
2022-12-23T00:37:43.243Z,15.98
2022-12-23T00:40:12.861Z,14.05
2022-12-23T00:42:39.531Z,15.43
2022-12-23T00:45:06.526Z,14.35
2022-12-23T00:47:33.118Z,16.95
2022-12-23T00:49:59.758Z,15.38
2022-12-23T00:52:26.408Z,17.20
2022-12-23T00:54:53.066Z,16.83
2022-12-23T00:57:19.735Z,15.85
2022-12-23T00:59:46.411Z,15.93
2022-12-23T01:02:13.202Z,16.83
2022-12-23T01:04:39.984Z,15.55
2022-12-23T01:07:06.742Z,14.98
2022-12-23T01:09:33.799Z,15.32
2022-12-23T01:12:00.520Z,15.07
2022-12-23T01:14:27.251Z,14.50
2022-12-23T01:16:53.981Z,17.02
2022-12-23T01:19:20.684Z,16.05
2022-12-23T01:21:47.355Z,17.02
2022-12-23T01:24:14.090Z,15.55
2022-12-23T01:26:40.762Z,16.50
2022-12-23T01:29:07.440Z,18.15
2022-12-23T01:31:34.205Z,15.60
2022-12-23T01:34:00.907Z,16.67
2022-12-23T01:36:27.542Z,14.13
2022-12-23T01:38:55.952Z,15.13
2022-12-23T01:41:25.315Z,16.75
2022-12-23T01:43:52.225Z,16.48
2022-12-23T01:46:18.958Z,16.80
2022-12-23T01:48:48.151Z,16.33
2022-12-23T01:51:25.876Z,16.27
2022-12-23T01:53:54.849Z,16.27
2022-12-23T01:56:30.328Z,17.15
2022-12-23T01:59:09.996Z,16.50
2022-12-23T02:01:36.801Z,15.40
2022-12-23T02:04:06.699Z,15.68
2022-12-23T02:09:01.223Z,15.10
2022-12-23T02:11:57.965Z,14.35
2022-12-23T02:14:57.761Z,14.85
2022-12-23T02:17:32.457Z,15.95
2022-12-23T02:20:18.715Z,13.57
2022-12-23T02:23:22.798Z,15.35
2022-12-23T02:25:52.479Z,11.80
2022-12-23T02:28:57.894Z,13.18
2022-12-23T02:31:34.333Z,11.65
2022-12-23T02:34:05.187Z,13.63
2022-12-23T02:36:39.081Z,11.77
2022-12-23T02:39:08.926Z,13.38
2022-12-23T02:41:41.369Z,12.73
2022-12-23T02:44:43.114Z,11.50
2022-12-23T02:47:24.413Z,13.93
2022-12-23T02:49:53.500Z,12.32
2022-12-23T02:52:21.853Z,10.68
2022-12-23T02:54:57.471Z,10.85
2022-12-23T02:57:26.452Z,13.80
2022-12-23T02:59:53.135Z,12.05
2022-12-23T03:02:20.046Z,12.40
2022-12-23T03:04:46.828Z,12.43
2022-12-23T03:07:18.932Z,11.23
2022-12-23T03:09:54.901Z,15.00
2022-12-23T03:12:41.808Z,13.23
2022-12-23T03:15:33.699Z,12.50
2022-12-23T03:18:26.251Z,12.60
2022-12-23T03:20:57.192Z,10.30
2022-12-23T03:23:32.513Z,13.02
2022-12-23T03:26:19.176Z,12.55
2022-12-23T03:29:12.738Z,12.98
2022-12-23T03:31:39.446Z,11.80
2022-12-23T03:34:09.022Z,12.18
2022-12-23T03:36:42.071Z,10.70
2022-12-23T03:39:12.992Z,7.40
2022-12-23T03:41:42.593Z,9.77
2022-12-23T03:44:13.655Z,9.35
2022-12-23T03:46:43.456Z,8.40
2022-12-23T03:51:49.119Z,10.02
2022-12-23T03:54:19.251Z,10.18
2022-12-23T03:56:48.293Z,9.00
2022-12-23T03:59:19.769Z,10.50
2022-12-23T04:02:04.827Z,11.20
2022-12-23T04:04:50.888Z,11.85
2022-12-23T04:07:38.862Z,12.27
2022-12-23T04:10:05.863Z,11.23
2022-12-23T04:12:32.473Z,10.27
2022-12-23T04:14:59.214Z,11.98
2022-12-23T04:17:25.884Z,10.10
2022-12-23T04:19:53.616Z,12.27
2022-12-23T04:22:20.300Z,12.32
2022-12-23T04:24:46.913Z,10.93
2022-12-23T04:27:14.175Z,9.68
2022-12-23T04:29:40.829Z,10.05
2022-12-23T04:32:07.742Z,10.85
2022-12-23T04:34:34.500Z,11.93
2022-12-23T04:37:01.251Z,11.98
2022-12-23T04:39:27.864Z,11.43
2022-12-23T04:41:54.523Z,10.80
2022-12-23T04:44:21.185Z,11.35
2022-12-23T04:46:47.947Z,11.15
2022-12-23T04:49:52.096Z,10.20
2022-12-23T04:52:18.762Z,11.25
2022-12-23T04:54:46.450Z,12.82
2022-12-23T04:57:18.455Z,12.57
2022-12-23T04:59:47.366Z,10.13
2022-12-23T05:02:33.732Z,11.98
2022-12-23T05:05:14.885Z,11.57
2022-12-23T05:07:41.512Z,12.38
2022-12-23T05:10:22.332Z,11.40
2022-12-23T05:12:48.980Z,10.75
2022-12-23T05:15:15.654Z,13.60
2022-12-23T05:17:42.255Z,13.23
2022-12-23T05:20:09.602Z,12.45
2022-12-23T05:22:41.557Z,11.75
2022-12-23T05:25:08.884Z,12.88
2022-12-23T05:27:36.397Z,13.02
2022-12-23T05:30:03.737Z,11.82
2022-12-23T05:32:30.335Z,12.48
2022-12-23T05:34:56.971Z,13.30
2022-12-23T05:37:23.752Z,13.07
2022-12-23T05:39:50.374Z,12.45
2022-12-23T05:42:17.033Z,14.48
2022-12-23T05:44:43.705Z,14.55
2022-12-23T05:47:10.323Z,14.80
2022-12-23T05:49:36.894Z,16.35
2022-12-23T05:52:03.583Z,16.67
2022-12-23T05:54:30.210Z,18.15
2022-12-23T05:56:56.781Z,17.65
2022-12-23T05:59:26.485Z,18.65
2022-12-23T06:01:57.526Z,18.48
2022-12-23T06:04:24.659Z,17.38
2022-12-23T06:06:51.361Z,20.15
2022-12-23T06:09:18.285Z,18.45
2022-12-23T06:11:44.925Z,18.45
2022-12-23T06:14:11.721Z,20.60
2022-12-23T06:16:38.765Z,19.33
2022-12-23T06:19:05.499Z,19.48
2022-12-23T06:21:32.328Z,21.23
2022-12-23T06:24:00.584Z,21.27
2022-12-23T06:26:27.195Z,19.63
2022-12-23T06:28:53.874Z,19.90
2022-12-23T06:31:20.555Z,20.00
2022-12-23T06:33:47.310Z,19.08
2022-12-23T06:36:13.996Z,19.65
2022-12-23T06:38:40.757Z,18.80
2022-12-23T06:41:07.364Z,20.00
2022-12-23T06:43:34.049Z,19.92
2022-12-23T06:46:00.803Z,18.30
2022-12-23T06:48:27.560Z,23.27
2022-12-23T06:50:54.223Z,17.67
2022-12-23T06:53:21.057Z,22.35
2022-12-23T06:55:47.926Z,19.25
2022-12-23T06:58:14.679Z,19.02
2022-12-23T07:00:41.436Z,21.63
2022-12-23T07:03:08.403Z,19.30
2022-12-23T07:05:37.737Z,22.40
2022-12-23T07:08:05.202Z,19.90
2022-12-23T07:10:31.925Z,22.25
2022-12-23T07:12:58.658Z,22.02
2022-12-23T07:15:25.331Z,17.42
2022-12-23T07:17:51.934Z,21.33
2022-12-23T07:20:18.940Z,17.25
2022-12-23T07:22:48.997Z,19.67
2022-12-23T07:25:15.999Z,18.05
2022-12-23T07:28:13.277Z,21.40
2022-12-23T07:31:11.719Z,17.38
2022-12-23T07:33:38.557Z,16.42
2022-12-23T07:39:22.844Z,18.40
2022-12-23T07:42:24.954Z,16.20
2022-12-23T07:45:00.804Z,18.13
2022-12-23T07:47:38.717Z,17.35
2022-12-23T07:50:17.145Z,19.90
2022-12-23T07:53:16.641Z,22.77
2022-12-23T07:56:35.681Z,17.77
2022-12-23T07:59:09.208Z,20.15
2022-12-23T08:01:56.105Z,20.88
2022-12-23T08:10:14.526Z,20.40
2022-12-23T08:12:43.358Z,22.70
2022-12-23T08:18:28.276Z,18.10
2022-12-23T08:21:32.529Z,19.63
2022-12-23T08:24:38.432Z,17.70
2022-12-23T08:27:28.907Z,18.15
2022-12-23T08:29:55.661Z,17.70
2022-12-23T08:32:26.039Z,17.30
2022-12-23T08:34:53.546Z,17.80
2022-12-23T08:37:21.175Z,17.42
2022-12-23T08:39:47.858Z,18.58
2022-12-23T08:42:15.171Z,19.13
2022-12-23T08:44:42.880Z,19.95
2022-12-23T08:47:09.582Z,17.85
2022-12-23T08:49:36.273Z,18.83
2022-12-23T08:52:05.899Z,17.98
2022-12-23T08:54:33.244Z,19.50
2022-12-23T08:56:59.904Z,18.50
2022-12-23T08:59:26.956Z,18.95
2022-12-23T09:01:53.799Z,19.02
2022-12-23T09:04:20.456Z,17.83
2022-12-23T09:06:47.488Z,16.35
2022-12-23T09:09:14.566Z,15.55
2022-12-23T09:11:41.329Z,16.52
2022-12-23T09:14:09.128Z,16.88
2022-12-23T09:16:36.092Z,14.80
2022-12-23T09:19:02.888Z,15.18
2022-12-23T09:21:29.787Z,14.23
2022-12-23T09:23:59.239Z,14.65
2022-12-23T09:26:29.242Z,16.60
2022-12-23T09:28:56.029Z,14.35
2022-12-23T09:31:22.998Z,15.27
2022-12-23T09:33:51.898Z,15.15
2022-12-23T09:36:18.923Z,15.55
2022-12-23T09:38:46.851Z,14.75
2022-12-23T09:41:22.151Z,13.43
2022-12-23T09:44:02.366Z,13.10
2022-12-23T09:46:29.062Z,15.00
2022-12-23T09:49:13.234Z,11.18
2022-12-23T09:51:39.968Z,13.65
2022-12-23T09:54:16.904Z,12.88
2022-12-23T09:57:27.439Z,11.77
2022-12-23T09:59:59.826Z,11.32
2022-12-23T10:02:39.140Z,10.43
2022-12-23T10:05:18.719Z,11.23
2022-12-23T10:07:57.731Z,9.85
2022-12-23T10:10:28.664Z,10.55
2022-12-23T10:12:58.636Z,10.05
2022-12-23T10:15:29.976Z,9.55
2022-12-23T10:17:59.192Z,11.82
2022-12-23T10:20:35.389Z,10.30
2022-12-23T10:23:02.049Z,11.82
2022-12-23T10:25:41.271Z,10.65
2022-12-23T10:28:09.730Z,11.45
2022-12-23T10:31:05.634Z,11.40
2022-12-23T10:33:39.171Z,11.77
2022-12-23T10:36:20.064Z,11.45
2022-12-23T10:39:09.566Z,12.77
2022-12-23T10:41:52.397Z,11.90
2022-12-23T10:44:33.369Z,11.82
2022-12-23T10:47:06.204Z,12.07
2022-12-23T10:50:10.529Z,13.82
2022-12-23T10:52:38.193Z,13.20
2022-12-23T10:55:05.317Z,12.70
2022-12-23T10:57:32.116Z,13.93
2022-12-23T10:59:58.744Z,14.98
2022-12-23T11:02:35.702Z,14.15
2022-12-23T11:05:02.406Z,15.23
2022-12-23T11:07:46.090Z,13.90
2022-12-23T11:10:23.669Z,19.83
2022-12-23T11:12:51.988Z,17.65
2022-12-23T11:15:40.477Z,16.27
2022-12-23T11:18:14.169Z,15.18
2022-12-23T11:20:42.458Z,16.75
2022-12-23T11:23:27.100Z,14.95
2022-12-23T11:26:04.818Z,15.50
2022-12-23T11:28:31.595Z,14.27
2022-12-23T11:31:03.705Z,15.77
2022-12-23T11:33:32.545Z,18.05
2022-12-23T11:36:08.899Z,14.50
2022-12-23T11:38:36.309Z,14.32
2022-12-23T11:41:04.925Z,14.43
2022-12-23T11:43:31.805Z,19.10
2022-12-23T11:46:24.928Z,20.65
2022-12-23T11:49:06.394Z,17.23
2022-12-23T11:51:33.074Z,16.73
2022-12-23T11:54:01.373Z,16.50
2022-12-23T11:56:28.514Z,17.75
2022-12-23T11:59:05.014Z,15.43
2022-12-23T12:01:31.908Z,15.25
2022-12-23T12:04:01.579Z,16.33
2022-12-23T12:06:28.317Z,13.25
2022-12-23T12:08:56.863Z,16.63
2022-12-23T12:11:39.953Z,14.48
2022-12-23T12:14:07.482Z,14.38
2022-12-23T12:16:44.068Z,14.45
2022-12-23T12:19:14.754Z,13.50
2022-12-23T12:21:41.456Z,15.27
2022-12-23T12:24:19.892Z,14.80
2022-12-23T12:26:49.004Z,12.32
2022-12-23T12:29:18.741Z,13.35
2022-12-23T12:34:49.885Z,13.73
2022-12-23T12:37:25.222Z,22.25
2022-12-23T12:40:01.851Z,13.90
2022-12-23T12:42:40.950Z,12.65
2022-12-23T12:45:17.912Z,12.15
2022-12-23T12:47:56.031Z,14.60
2022-12-23T12:50:29.842Z,13.52
2022-12-23T12:52:59.210Z,17.35
2022-12-23T12:55:29.842Z,15.15
2022-12-23T12:57:56.579Z,14.93
2022-12-23T13:00:23.829Z,16.42
2022-12-23T13:03:12.312Z,15.02
2022-12-23T13:06:36.585Z,16.63
2022-12-23T13:09:21.853Z,17.48
2022-12-23T13:12:09.792Z,19.85
2022-12-23T13:14:52.406Z,16.05
2022-12-23T13:17:38.462Z,15.85
2022-12-23T13:20:23.090Z,19.67
2022-12-23T13:22:50.310Z,18.20
2022-12-23T13:25:21.081Z,16.50
2022-12-23T13:27:57.441Z,12.32
2022-12-23T13:30:26.221Z,12.63
2022-12-23T13:33:02.079Z,12.63
2022-12-23T13:36:05.682Z,15.52
2022-12-23T13:38:35.933Z,11.07
2022-12-23T13:41:18.476Z,15.30
2022-12-23T13:44:02.254Z,12.40
2022-12-23T13:47:08.057Z,10.98
2022-12-23T13:49:43.515Z,8.75
2022-12-23T13:52:20.207Z,10.52
2022-12-23T13:55:02.203Z,9.45
2022-12-23T13:57:44.696Z,9.13
2022-12-23T14:00:17.299Z,10.65
2022-12-23T14:02:59.126Z,9.65
2022-12-23T14:05:37.937Z,9.85
2022-12-23T14:08:14.635Z,10.80
2022-12-23T14:10:41.340Z,10.43
2022-12-23T14:13:08.404Z,10.82
2022-12-23T14:15:45.048Z,11.60
2022-12-23T14:18:32.667Z,12.90
2022-12-23T14:21:08.277Z,11.65
2022-12-23T14:24:11.197Z,11.63
2022-12-23T14:26:56.395Z,11.43
2022-12-23T14:29:57.486Z,12.35
2022-12-23T14:32:30.014Z,10.55
2022-12-23T14:35:18.243Z,12.95
2022-12-23T14:38:16.153Z,11.75
2022-12-23T14:40:43.010Z,15.10
2022-12-23T14:43:21.947Z,12.02
2022-12-23T14:45:52.728Z,12.65
2022-12-23T14:48:36.932Z,12.25
2022-12-23T14:51:04.112Z,12.32
2022-12-23T14:53:31.617Z,8.63
2022-12-23T14:56:19.719Z,7.38
2022-12-23T14:58:46.309Z,9.05
2022-12-23T15:01:16.714Z,8.23
2022-12-23T15:03:46.304Z,6.45
2022-12-23T15:06:16.064Z,5.53
2022-12-23T15:11:21.616Z,3.60
2022-12-23T15:13:50.898Z,2.90
2022-12-23T15:16:17.883Z,4.20
2022-12-23T15:18:55.074Z,2.60
2022-12-23T15:21:34.359Z,3.03
2022-12-23T15:24:01.084Z,3.17
2022-12-23T15:26:30.782Z,3.67
2022-12-23T15:28:58.318Z,2.95
2022-12-23T15:31:26.359Z,3.38
2022-12-23T15:34:13.253Z,4.07
2022-12-23T15:36:41.494Z,3.22
2022-12-23T15:39:10.030Z,3.60
2022-12-23T15:41:46.837Z,3.90
2022-12-23T15:44:16.255Z,3.72
2022-12-23T15:46:44.786Z,4.82
2022-12-23T15:49:11.813Z,4.35
2022-12-23T15:52:06.236Z,5.07
2022-12-23T15:54:31.748Z,5.05
2022-12-23T15:56:59.445Z,4.40
2022-12-23T15:59:29.120Z,5.25
2022-12-23T16:01:56.048Z,6.38
2022-12-23T16:04:28.228Z,5.72
2022-12-23T16:06:55.232Z,6.22
2022-12-23T16:09:33.985Z,6.15
2022-12-23T16:12:22.330Z,6.97
2022-12-23T16:14:58.922Z,5.00
2022-12-23T16:17:34.884Z,6.03
2022-12-23T16:22:40.606Z,5.68
2022-12-23T16:25:19.378Z,6.68
2022-12-23T16:27:47.189Z,5.03
2022-12-23T16:30:21.341Z,5.43
2022-12-23T16:32:51.010Z,5.15
2022-12-23T16:40:19.974Z,3.53
2022-12-23T16:42:46.609Z,4.88
2022-12-23T16:45:13.305Z,4.50
2022-12-23T16:47:41.495Z,5.43
2022-12-23T16:50:11.774Z,4.93
2022-12-23T16:52:41.441Z,3.95
2022-12-23T16:55:18.613Z,5.30
2022-12-23T16:57:45.521Z,5.82
2022-12-23T17:00:15.859Z,4.28
2022-12-23T17:02:48.493Z,4.57
2022-12-23T17:05:19.348Z,5.22
2022-12-23T17:07:46.138Z,5.75
2022-12-23T17:10:13.555Z,5.22
2022-12-23T17:12:40.351Z,5.20
2022-12-23T17:15:07.456Z,6.68
2022-12-23T17:17:34.204Z,4.70
2022-12-23T17:20:00.842Z,4.78
2022-12-23T17:22:28.734Z,5.20
2022-12-23T17:24:55.460Z,4.22
2022-12-23T17:27:22.261Z,5.03
2022-12-23T17:29:48.880Z,4.78
2022-12-23T17:32:15.524Z,4.60
2022-12-23T17:34:43.255Z,4.50
2022-12-23T17:37:17.144Z,4.50
2022-12-23T17:39:44.206Z,4.70
2022-12-23T17:42:23.330Z,4.32
2022-12-23T17:44:52.027Z,4.15
2022-12-23T17:47:20.297Z,4.90
2022-12-23T17:49:47.509Z,4.57
2022-12-23T17:52:15.696Z,4.13
2022-12-23T17:54:42.800Z,5.32
2022-12-23T17:57:23.223Z,5.40
2022-12-23T17:59:53.756Z,3.97
2022-12-23T18:02:24.400Z,4.55
2022-12-23T18:04:51.270Z,5.45
2022-12-23T18:07:18.048Z,4.65
2022-12-23T18:09:44.863Z,4.88
2022-12-23T18:12:35.613Z,4.68
2022-12-23T18:15:02.686Z,3.67
2022-12-23T18:17:29.340Z,5.00
2022-12-23T18:19:56.015Z,4.10
2022-12-23T18:22:23.917Z,5.43
2022-12-23T18:24:56.939Z,5.18
2022-12-23T18:27:25.793Z,4.90
2022-12-23T18:29:52.416Z,3.03
2022-12-23T18:32:28.727Z,4.38
2022-12-23T18:34:55.465Z,3.92
2022-12-23T18:37:24.939Z,5.55
2022-12-23T18:39:52.704Z,4.13
2022-12-23T18:42:19.767Z,3.40
2022-12-23T18:44:47.396Z,4.55
2022-12-23T18:47:14.248Z,3.75
2022-12-23T18:49:40.991Z,4.93
2022-12-23T18:52:10.607Z,3.72
2022-12-23T18:54:37.287Z,4.18
2022-12-23T18:57:03.973Z,4.32
2022-12-23T18:59:30.712Z,4.18
2022-12-23T19:01:57.815Z,5.95
2022-12-23T19:04:26.649Z,3.95
2022-12-23T19:06:54.243Z,3.70
2022-12-23T19:09:21.883Z,5.20
2022-12-23T19:11:49.384Z,4.20
2022-12-23T19:14:16.373Z,5.13
2022-12-23T19:16:49.274Z,4.53
2022-12-23T19:19:18.065Z,4.38
2022-12-23T19:21:44.800Z,5.63
2022-12-23T19:24:11.459Z,3.42
2022-12-23T19:26:38.184Z,4.45
2022-12-23T19:29:04.828Z,8.32
2022-12-23T19:31:31.672Z,4.20
2022-12-23T19:33:58.467Z,4.28
2022-12-23T19:36:25.310Z,5.22
2022-12-23T19:38:52.052Z,4.53
2022-12-23T19:41:18.968Z,4.68
2022-12-23T19:43:46.453Z,5.50
2022-12-23T19:46:13.992Z,4.40
2022-12-23T19:48:40.759Z,4.00
2022-12-23T19:51:11.211Z,3.78
2022-12-23T19:53:39.855Z,3.50
2022-12-23T19:56:14.058Z,4.20
2022-12-23T19:58:42.024Z,4.88
2022-12-23T20:01:20.740Z,3.83
2022-12-23T20:03:48.238Z,4.10
2022-12-23T20:06:21.487Z,4.43
2022-12-23T20:08:48.409Z,3.63
2022-12-23T20:11:17.554Z,4.38
2022-12-23T20:13:44.324Z,3.97
2022-12-23T20:16:15.353Z,4.82
2022-12-23T20:18:42.285Z,3.63
2022-12-23T20:21:11.343Z,3.45
2022-12-23T20:23:38.125Z,3.08
2022-12-23T20:26:05.202Z,3.70
2022-12-23T20:28:32.517Z,3.20
2022-12-23T20:31:05.429Z,4.68
2022-12-23T20:33:32.537Z,4.50
2022-12-23T20:35:59.539Z,5.20
2022-12-23T20:38:26.521Z,5.13
2022-12-23T20:40:53.234Z,4.53
2022-12-23T20:43:21.657Z,3.80
2022-12-23T20:45:50.877Z,3.42
2022-12-23T20:48:17.894Z,3.53
2022-12-23T20:50:44.707Z,4.00
2022-12-23T20:53:13.857Z,3.35
2022-12-23T20:55:40.679Z,3.95
2022-12-23T20:58:07.613Z,2.88
2022-12-23T21:00:35.199Z,3.85
2022-12-23T21:03:08.349Z,3.35
2022-12-23T21:05:37.302Z,5.07
2022-12-23T21:08:04.310Z,3.13
2022-12-23T21:10:31.244Z,3.80
2022-12-23T21:12:58.166Z,4.43
2022-12-23T21:15:25.453Z,5.95
2022-12-23T21:17:52.231Z,4.05
2022-12-23T21:20:19.032Z,3.70
2022-12-23T21:22:45.664Z,4.18
2022-12-23T21:25:12.517Z,4.03
2022-12-23T21:27:41.089Z,3.65
2022-12-23T21:30:09.186Z,4.47
2022-12-23T21:32:36.036Z,3.88
2022-12-23T21:35:03.028Z,4.25
2022-12-23T21:37:29.998Z,4.57
2022-12-23T21:39:56.768Z,4.13
2022-12-23T21:42:23.479Z,4.00
2022-12-23T21:45:12.057Z,3.72
2022-12-23T21:47:38.696Z,4.93
2022-12-23T21:50:06.336Z,3.35
2022-12-23T21:52:33.460Z,4.75
2022-12-23T21:55:01.514Z,4.65
2022-12-23T21:57:28.252Z,3.60
2022-12-23T21:59:54.929Z,3.17
2022-12-23T22:02:21.760Z,4.80
2022-12-23T22:04:48.651Z,4.57
2022-12-23T22:07:17.028Z,3.80
2022-12-23T22:09:43.749Z,3.30
2022-12-23T22:12:10.421Z,4.72
2022-12-23T22:14:37.117Z,4.28
2022-12-23T22:17:03.810Z,4.95
2022-12-23T22:19:30.480Z,4.30
2022-12-23T22:21:57.232Z,3.67
2022-12-23T22:24:24.084Z,5.13
2022-12-23T22:26:51.312Z,4.07
2022-12-23T22:29:19.082Z,4.80
2022-12-23T22:31:50.203Z,4.00
2022-12-23T22:34:21.424Z,3.90
2022-12-23T22:36:48.494Z,4.18
2022-12-23T22:39:20.729Z,3.70
2022-12-23T22:45:08.123Z,3.75
2022-12-23T22:47:34.895Z,2.97
2022-12-23T22:50:01.631Z,3.05
2022-12-23T22:52:28.396Z,5.18
2022-12-23T22:54:55.207Z,4.78
2022-12-23T22:57:21.863Z,3.67
2022-12-23T22:59:48.483Z,3.25
2022-12-23T23:02:15.241Z,3.17
2022-12-23T23:04:42.000Z,4.45
2022-12-23T23:07:08.712Z,3.72
2022-12-23T23:09:35.402Z,4.07
2022-12-23T23:12:02.108Z,5.07
2022-12-23T23:14:28.881Z,4.38
2022-12-23T23:16:55.606Z,4.95
2022-12-23T23:19:22.389Z,4.35
2022-12-23T23:21:49.062Z,3.70
2022-12-23T23:24:15.742Z,4.43
2022-12-23T23:26:42.393Z,4.95
2022-12-23T23:29:08.996Z,4.82
2022-12-23T23:31:43.923Z,5.38
2022-12-23T23:34:11.926Z,4.38
2022-12-23T23:36:38.840Z,4.65
2022-12-23T23:39:05.685Z,4.75
2022-12-23T23:41:32.303Z,3.85
2022-12-23T23:43:58.925Z,4.70
2022-12-23T23:46:25.597Z,4.07
2022-12-23T23:48:52.377Z,4.18
2022-12-23T23:51:19.024Z,5.10
2022-12-23T23:53:45.629Z,3.78
2022-12-23T23:56:12.327Z,5.45
2022-12-23T23:58:39.037Z,4.95
